Time;durP1;ratioP1;P1;durP2;ratioP2;P2;SDS_P1;SDS_P2;PMS_P1;PMS_P2;Temp;Humidity;BMP_temperature;BMP_pressure;BME280_temperature;BME280_humidity;BME280_pressure;Samples;Min_cycle;Max_cycle;Signal;HPM_P1;HPM_P2
2023/12/03 00:02:12;;;;;;;75.83;34.70;;;2.20;99.90;;;;;;4966391;28;37196;-80
2023/12/03 00:04:38;;;;;;;55.20;30.07;;;2.20;99.90;;;;;;4967096;28;36375;-80
2023/12/03 00:07:10;;;;;;;45.07;27.40;;;2.20;99.90;;;;;;4984086;28;39206;-79
2023/12/03 00:09:39;;;;;;;43.30;26.13;;;2.20;99.90;;;;;;4965508;28;37862;-79
2023/12/03 00:12:09;;;;;;;53.23;29.67;;;2.30;99.90;;;;;;4969454;28;36967;-79
2023/12/03 00:14:41;;;;;;;50.17;29.80;;;2.20;99.90;;;;;;4989704;28;38222;-80
2023/12/03 00:17:10;;;;;;;41.03;26.15;;;2.10;99.90;;;;;;4959289;28;39702;-80
2023/12/03 00:19:42;;;;;;;61.10;30.30;;;2.10;99.90;;;;;;4986752;28;39827;-80
2023/12/03 00:22:12;;;;;;;50.83;28.88;;;2.20;99.90;;;;;;4958290;28;38523;-80
2023/12/03 00:24:38;;;;;;;45.57;26.33;;;2.10;99.90;;;;;;4964711;28;36978;-79
2023/12/03 00:27:05;;;;;;;59.20;30.83;;;2.20;99.90;;;;;;4966786;28;38048;-81
2023/12/03 00:29:31;;;;;;;46.23;26.87;;;2.20;99.90;;;;;;4978329;28;38470;-79
2023/12/03 00:31:57;;;;;;;44.03;26.83;;;2.20;99.90;;;;;;4960860;28;37174;-80
2023/12/03 00:34:24;;;;;;;43.50;27.97;;;2.20;99.90;;;;;;4971215;28;36552;-79
2023/12/03 00:36:51;;;;;;;46.63;28.13;;;2.20;99.90;;;;;;4952877;28;38718;-80
2023/12/03 00:39:17;;;;;;;61.70;33.87;;;2.20;99.90;;;;;;4954471;28;38841;-80
2023/12/03 00:41:43;;;;;;;39.27;25.03;;;2.20;99.90;;;;;;4988930;28;38873;-81
2023/12/03 00:44:13;;;;;;;42.40;28.93;;;2.20;99.90;;;;;;4959760;28;36473;-80
2023/12/03 00:46:39;;;;;;;61.30;33.13;;;2.10;99.90;;;;;;4962058;28;38463;-79
2023/12/03 00:49:05;;;;;;;50.20;29.90;;;2.10;99.90;;;;;;4953736;28;37747;-79
2023/12/03 00:51:34;;;;;;;49.23;30.93;;;2.10;99.90;;;;;;4976633;28;39126;-78
2023/12/03 00:54:00;;;;;;;48.07;30.30;;;2.10;99.90;;;;;;4982836;28;37529;-80
2023/12/03 00:56:26;;;;;;;54.57;32.10;;;2.00;99.90;;;;;;4977486;28;41955;-79
2023/12/03 00:58:52;;;;;;;62.30;35.93;;;2.00;99.90;;;;;;4971060;28;37092;-79
2023/12/03 01:01:22;;;;;;;53.53;33.50;;;1.90;99.90;;;;;;4959567;28;37003;-80
2023/12/03 01:03:48;;;;;;;44.13;28.80;;;1.90;99.90;;;;;;4978406;28;38903;-79
2023/12/03 01:06:14;;;;;;;48.73;31.00;;;1.80;99.90;;;;;;4980900;28;39717;-81
2023/12/03 01:08:40;;;;;;;43.90;28.90;;;1.80;99.90;;;;;;4973236;28;37746;-79
2023/12/03 01:11:07;;;;;;;40.90;29.73;;;1.70;99.90;;;;;;4984942;28;39211;-80
2023/12/03 01:13:33;;;;;;;42.70;28.30;;;1.70;99.90;;;;;;4984644;28;38555;-80
2023/12/03 01:16:15;;;;;;;46.50;31.03;;;1.60;99.90;;;;;;4970975;28;38778;-79
2023/12/03 01:18:44;;;;;;;54.13;33.73;;;1.50;99.90;;;;;;4960525;28;47566;-79
2023/12/03 01:21:10;;;;;;;50.43;32.97;;;1.50;99.90;;;;;;4947740;28;37874;-79
2023/12/03 01:23:36;;;;;;;50.23;32.57;;;1.50;99.90;;;;;;4958087;28;36229;-80
2023/12/03 01:26:02;;;;;;;59.00;36.33;;;1.50;99.90;;;;;;4950170;28;39048;-79
2023/12/03 01:28:29;;;;;;;58.83;35.87;;;1.50;99.90;;;;;;4979827;28;40859;-80
2023/12/03 01:30:55;;;;;;;49.67;32.63;;;1.50;99.90;;;;;;4948056;28;37020;-79
2023/12/03 01:33:21;;;;;;;45.40;32.23;;;1.50;99.90;;;;;;4945936;28;36523;-80
2023/12/03 01:35:47;;;;;;;58.03;38.67;;;1.40;99.90;;;;;;4958975;28;40129;-78
2023/12/03 01:38:15;;;;;;;57.47;36.23;;;1.40;99.90;;;;;;4973678;28;38134;-78
2023/12/03 01:40:51;;;;;;;50.13;34.80;;;1.40;99.90;;;;;;4961417;28;37037;-79
2023/12/03 01:43:17;;;;;;;53.83;35.07;;;1.40;99.90;;;;;;4974834;28;37106;-80
2023/12/03 01:45:45;;;;;;;59.27;37.20;;;1.40;99.90;;;;;;4962595;28;37823;-77
2023/12/03 01:48:12;;;;;;;49.30;32.23;;;1.30;99.90;;;;;;4963091;28;38336;-78
2023/12/03 01:50:42;;;;;;;59.47;36.20;;;1.30;99.90;;;;;;4984425;28;38189;-78
2023/12/03 01:53:09;;;;;;;64.60;40.43;;;1.40;99.90;;;;;;4959279;28;37654;-77
2023/12/03 01:55:38;;;;;;;62.30;41.37;;;1.30;99.90;;;;;;4978481;28;38469;-79
2023/12/03 01:58:04;;;;;;;61.43;38.53;;;1.30;99.90;;;;;;4956638;28;37553;-78
2023/12/03 02:03:13;;;;;;;60.17;36.70;;;1.30;99.90;;;;;;5233654;23;20063;-77
2023/12/03 02:05:39;;;;;;;71.37;41.50;;;1.30;99.90;;;;;;4944478;28;37112;-78
2023/12/03 02:08:06;;;;;;;62.37;38.03;;;1.30;99.90;;;;;;4968164;28;38579;-78
2023/12/03 02:10:32;;;;;;;68.77;40.20;;;1.30;99.90;;;;;;4961257;28;38223;-77
2023/12/03 02:13:01;;;;;;;59.87;36.70;;;1.30;99.90;;;;;;4954770;28;37402;-78
2023/12/03 02:15:28;;;;;;;59.67;35.73;;;1.20;99.90;;;;;;4947349;28;46684;-77
2023/12/03 02:17:54;;;;;;;57.47;35.73;;;1.20;99.90;;;;;;4960899;28;39167;-77
2023/12/03 02:20:20;;;;;;;61.93;37.90;;;1.10;99.90;;;;;;4967231;28;38352;-77
2023/12/03 02:23:00;;;;;;;64.80;37.90;;;1.10;99.90;;;;;;4973385;28;38003;-77
2023/12/03 02:25:26;;;;;;;67.97;38.97;;;1.10;99.90;;;;;;4944864;28;38241;-77
2023/12/03 02:27:52;;;;;;;68.13;39.37;;;1.20;99.90;;;;;;4963290;28;39362;-77
2023/12/03 02:30:18;;;;;;;55.57;34.03;;;1.10;99.90;;;;;;4948072;28;37715;-78
2023/12/03 02:32:44;;;;;;;71.00;38.97;;;1.10;99.90;;;;;;4940747;28;36611;-77
2023/12/03 02:35:13;;;;;;;65.07;37.67;;;1.10;99.90;;;;;;4958838;28;38658;-77
2023/12/03 02:37:39;;;;;;;71.90;39.10;;;1.10;99.90;;;;;;4944731;28;37715;-77
2023/12/03 02:40:06;;;;;;;84.50;42.90;;;1.20;99.90;;;;;;4943800;28;36725;-78
2023/12/03 02:42:32;;;;;;;71.80;38.23;;;1.10;99.90;;;;;;4945097;28;37576;-77
2023/12/03 02:44:58;;;;;;;64.33;36.10;;;1.10;99.90;;;;;;4979660;28;40274;-77
2023/12/03 02:47:25;;;;;;;78.97;41.47;;;1.10;99.90;;;;;;4950492;28;38454;-77
2023/12/03 02:49:54;;;;;;;79.40;40.23;;;1.10;99.90;;;;;;4975851;28;39207;-78
2023/12/03 02:52:20;;;;;;;73.57;35.87;;;1.10;99.90;;;;;;4972524;28;37556;-77
2023/12/03 02:54:46;;;;;;;80.33;40.70;;;1.10;99.90;;;;;;4951674;28;37883;-78
2023/12/03 02:57:12;;;;;;;71.73;39.50;;;1.10;99.90;;;;;;4955613;28;37327;-77
2023/12/03 02:59:38;;;;;;;71.77;39.93;;;1.20;99.90;;;;;;4953198;28;37239;-78
2023/12/03 03:02:04;;;;;;;84.03;39.97;;;1.20;99.90;;;;;;4967937;28;37471;-77
2023/12/03 03:04:31;;;;;;;68.37;37.40;;;1.20;99.90;;;;;;4970457;28;39236;-77
2023/12/03 03:06:57;;;;;;;70.10;37.83;;;1.10;99.90;;;;;;4966049;28;38765;-77
2023/12/03 03:09:23;;;;;;;76.23;39.17;;;1.20;99.90;;;;;;4966182;28;39109;-77
2023/12/03 03:11:49;;;;;;;81.63;41.73;;;1.10;99.90;;;;;;4968743;28;37774;-77
2023/12/03 03:14:15;;;;;;;85.10;41.00;;;1.10;99.90;;;;;;4966245;28;39463;-78
2023/12/03 03:16:44;;;;;;;87.23;40.60;;;1.00;99.90;;;;;;4962082;28;39190;-78
2023/12/03 03:19:10;;;;;;;85.10;39.13;;;1.00;99.90;;;;;;4967347;28;38076;-77
2023/12/03 03:21:40;;;;;;;87.00;41.73;;;1.00;99.90;;;;;;4937604;28;37654;-77
2023/12/03 03:24:06;;;;;;;73.43;37.07;;;1.00;99.90;;;;;;4945297;28;39512;-78
2023/12/03 03:26:33;;;;;;;91.87;41.57;;;1.00;99.90;;;;;;4945292;28;37540;-78
2023/12/03 03:28:59;;;;;;;92.83;41.30;;;1.00;99.90;;;;;;4965613;28;37456;-78
2023/12/03 03:31:25;;;;;;;86.90;39.57;;;1.00;99.90;;;;;;4967669;28;37601;-78
2023/12/03 03:33:51;;;;;;;87.43;41.97;;;1.00;99.90;;;;;;4942618;28;37681;-78
2023/12/03 03:36:17;;;;;;;85.80;41.63;;;1.00;99.90;;;;;;4939005;28;38260;-78
2023/12/03 03:38:44;;;;;;;85.87;41.67;;;1.00;99.90;;;;;;4944330;28;36728;-78
2023/12/03 03:41:10;;;;;;;76.93;39.77;;;1.00;99.90;;;;;;4942119;28;37269;-78
2023/12/03 03:43:36;;;;;;;90.47;40.87;;;1.00;99.90;;;;;;4960463;28;38769;-78
2023/12/03 03:46:06;;;;;;;95.90;42.63;;;1.00;99.90;;;;;;4966312;28;38819;-78
2023/12/03 03:48:32;;;;;;;90.30;41.27;;;1.00;99.90;;;;;;4975704;28;38043;-78
2023/12/03 03:50:58;;;;;;;88.13;42.13;;;0.90;99.90;;;;;;4942356;28;36246;-78
2023/12/03 03:53:24;;;;;;;79.00;38.47;;;0.90;99.90;;;;;;4969559;28;39462;-78
2023/12/03 03:55:51;;;;;;;88.07;40.43;;;1.00;99.90;;;;;;4963998;28;38429;-77
2023/12/03 03:58:17;;;;;;;84.57;39.17;;;0.90;99.90;;;;;;4969126;28;38932;-78
2023/12/03 04:00:46;;;;;;;107.57;45.03;;;0.90;99.90;;;;;;4957049;28;36264;-78
2023/12/03 04:03:16;;;;;;;102.33;44.60;;;0.80;99.90;;;;;;4949312;28;39280;-78
2023/12/03 04:05:42;;;;;;;99.87;43.67;;;0.90;99.90;;;;;;4960691;28;39148;-77
2023/12/03 04:08:08;;;;;;;81.23;40.07;;;0.90;99.90;;;;;;4962486;28;38032;-78
2023/12/03 04:10:35;;;;;;;83.80;40.27;;;0.90;99.90;;;;;;4953703;28;37004;-77
2023/12/03 04:13:01;;;;;;;95.50;42.20;;;0.90;99.90;;;;;;4968082;28;37073;-77
2023/12/03 04:15:27;;;;;;;89.87;41.23;;;0.90;99.90;;;;;;4944333;28;49327;-78
2023/12/03 04:17:53;;;;;;;81.30;38.53;;;0.80;99.90;;;;;;4966653;28;38921;-78
2023/12/03 04:20:19;;;;;;;92.73;43.43;;;0.80;99.90;;;;;;4961983;28;37585;-79
2023/12/03 04:22:45;;;;;;;82.60;39.03;;;0.80;99.90;;;;;;4961650;28;39126;-78
2023/12/03 04:25:11;;;;;;;89.40;40.00;;;0.80;99.90;;;;;;4972598;28;36938;-78
2023/12/03 04:27:38;;;;;;;87.03;40.23;;;0.80;99.90;;;;;;4966332;28;39352;-78
2023/12/03 04:30:07;;;;;;;85.63;40.03;;;0.80;99.90;;;;;;4969574;28;36194;-78
2023/12/03 04:32:33;;;;;;;85.33;40.27;;;0.70;99.90;;;;;;4978907;28;47322;-77
2023/12/03 04:34:59;;;;;;;97.53;43.60;;;0.80;99.90;;;;;;4964506;28;36861;-77
2023/12/03 04:37:25;;;;;;;77.23;37.80;;;0.80;99.90;;;;;;4977063;28;37936;-78
2023/12/03 04:39:51;;;;;;;87.73;41.10;;;0.70;99.90;;;;;;4983632;28;37618;-77
2023/12/03 04:42:17;;;;;;;90.87;42.33;;;0.70;99.90;;;;;;4986201;28;41081;-78
2023/12/03 04:44:46;;;;;;;86.47;39.63;;;0.70;99.90;;;;;;4974059;28;37277;-78
2023/12/03 04:47:17;;;;;;;75.23;36.93;;;0.70;99.90;;;;;;4967411;28;37336;-78
2023/12/03 04:49:43;;;;;;;88.43;40.10;;;0.60;99.90;;;;;;4972124;28;37637;-77
2023/12/03 04:52:09;;;;;;;73.43;35.70;;;0.60;99.90;;;;;;4985382;28;40027;-78
2023/12/03 04:54:35;;;;;;;75.27;38.00;;;0.60;99.90;;;;;;4983252;28;40613;-78
2023/12/03 04:57:02;;;;;;;85.90;39.03;;;0.60;99.90;;;;;;4981310;28;38089;-78
2023/12/03 04:59:28;;;;;;;92.57;39.17;;;0.60;99.90;;;;;;4989750;28;37158;-78
2023/12/03 05:01:54;;;;;;;86.13;38.70;;;0.60;99.90;;;;;;4964330;28;37659;-78
2023/12/03 05:04:23;;;;;;;96.57;40.00;;;0.60;99.90;;;;;;4969538;28;38266;-77
2023/12/03 05:06:49;;;;;;;98.17;43.30;;;0.60;99.90;;;;;;4968431;28;37626;-78
2023/12/03 05:09:18;;;;;;;84.90;39.70;;;0.60;99.90;;;;;;4984614;28;37842;-78
2023/12/03 05:11:45;;;;;;;90.47;39.00;;;0.60;99.90;;;;;;4970479;28;37788;-77
2023/12/03 05:14:11;;;;;;;86.73;41.47;;;0.60;99.90;;;;;;4966326;28;38570;-77
2023/12/03 05:16:38;;;;;;;94.00;39.93;;;0.60;99.90;;;;;;4962936;28;38201;-78
2023/12/03 05:19:04;;;;;;;81.77;38.13;;;0.50;99.90;;;;;;4979463;28;37336;-78
2023/12/03 05:21:30;;;;;;;93.23;42.50;;;0.50;99.90;;;;;;4980572;28;39420;-77
2023/12/03 05:23:56;;;;;;;97.67;40.00;;;0.50;99.90;;;;;;4965933;28;38323;-77
2023/12/03 05:26:24;;;;;;;86.00;38.57;;;0.50;99.90;;;;;;4979704;28;39158;-77
2023/12/03 05:28:50;;;;;;;100.30;41.97;;;0.50;99.90;;;;;;4954495;28;37079;-77
2023/12/03 05:31:19;;;;;;;89.43;40.20;;;0.50;99.90;;;;;;4981135;28;39468;-78
2023/12/03 05:33:49;;;;;;;87.27;41.27;;;0.50;99.90;;;;;;4981004;28;39368;-78
2023/12/03 05:36:22;;;;;;;108.87;45.13;;;0.50;99.90;;;;;;4980076;28;39149;-78
2023/12/03 05:38:52;;;;;;;94.33;41.03;;;0.50;99.90;;;;;;4963643;28;36473;-78
2023/12/03 05:41:18;;;;;;;104.67;42.67;;;0.50;99.90;;;;;;4980063;28;38294;-78
2023/12/03 05:43:44;;;;;;;106.80;45.60;;;0.50;99.90;;;;;;4980190;28;38408;-77
2023/12/03 05:46:10;;;;;;;112.20;46.30;;;0.50;99.90;;;;;;4964041;28;37348;-78
2023/12/03 05:48:36;;;;;;;97.10;42.07;;;0.50;99.90;;;;;;4979786;28;37827;-78
2023/12/03 05:51:08;;;;;;;93.93;42.27;;;0.50;99.90;;;;;;4980631;28;39192;-78
2023/12/03 05:53:35;;;;;;;114.38;46.00;;;0.50;99.90;;;;;;4964115;28;37906;-78
2023/12/03 05:56:01;;;;;;;89.63;42.67;;;0.50;99.90;;;;;;4959354;28;37268;-77
2023/12/03 05:58:27;;;;;;;97.20;42.47;;;0.50;99.90;;;;;;4980265;28;47629;-78
2023/12/03 06:00:53;;;;;;;101.10;43.03;;;0.40;99.90;;;;;;4961836;28;38372;-78
2023/12/03 06:03:19;;;;;;;134.00;49.00;;;0.40;99.90;;;;;;4953946;28;38612;-78
2023/12/03 06:05:45;;;;;;;119.00;47.77;;;0.50;99.90;;;;;;4982832;28;38224;-78
2023/12/03 06:08:11;;;;;;;109.07;45.57;;;0.40;99.90;;;;;;4985492;28;37101;-78
2023/12/03 06:10:38;;;;;;;99.53;44.30;;;0.40;99.90;;;;;;4970602;28;37784;-78
2023/12/03 06:13:04;;;;;;;111.40;48.37;;;0.40;99.90;;;;;;4990886;28;38640;-78
2023/12/03 06:15:30;;;;;;;102.23;45.87;;;0.40;99.90;;;;;;4973080;28;38631;-77
2023/12/03 06:17:56;;;;;;;110.50;44.37;;;0.40;99.90;;;;;;4983781;28;37793;-76
2023/12/03 06:20:22;;;;;;;103.00;46.53;;;0.40;99.90;;;;;;4991240;28;39282;-77
2023/12/03 06:22:51;;;;;;;117.23;47.50;;;0.40;99.90;;;;;;4989225;28;37279;-78
2023/12/03 06:25:17;;;;;;;117.87;47.67;;;0.40;99.90;;;;;;4986580;28;38123;-78
2023/12/03 06:27:44;;;;;;;91.47;41.10;;;0.40;99.90;;;;;;4986979;28;38149;-78
2023/12/03 06:30:13;;;;;;;105.30;44.93;;;0.40;99.90;;;;;;4989260;28;39736;-78
2023/12/03 06:32:39;;;;;;;103.37;44.23;;;0.40;99.90;;;;;;4969748;28;39416;-77
2023/12/03 06:35:06;;;;;;;107.03;42.47;;;0.40;99.90;;;;;;4971618;28;38409;-78
2023/12/03 06:37:32;;;;;;;119.60;46.77;;;0.40;99.90;;;;;;4989407;28;36808;-78
2023/12/03 06:39:58;;;;;;;109.63;45.33;;;0.40;99.90;;;;;;4991017;28;39995;-78
2023/12/03 06:42:24;;;;;;;97.20;43.47;;;0.50;99.90;;;;;;4995510;28;39236;-77
2023/12/03 06:44:50;;;;;;;106.77;43.80;;;0.50;99.90;;;;;;4996680;28;38611;-77
2023/12/03 06:47:17;;;;;;;101.67;43.27;;;0.50;99.90;;;;;;4985324;28;36286;-78
2023/12/03 06:49:47;;;;;;;92.40;41.13;;;0.40;99.90;;;;;;4980403;28;37578;-78
2023/12/03 06:52:13;;;;;;;94.17;42.80;;;0.50;99.90;;;;;;4977154;28;37785;-78
2023/12/03 06:54:43;;;;;;;94.97;42.17;;;0.40;99.90;;;;;;4986470;28;37264;-77
2023/12/03 06:57:10;;;;;;;99.27;41.23;;;0.40;99.90;;;;;;4992394;28;37542;-77
2023/12/03 06:59:36;;;;;;;90.23;40.20;;;0.40;99.90;;;;;;4998408;28;38747;-77
2023/12/03 07:02:03;;;;;;;94.17;40.20;;;0.40;99.90;;;;;;4988711;28;39353;-78
2023/12/03 07:04:29;;;;;;;106.37;41.27;;;0.40;99.90;;;;;;5005887;28;38088;-78
2023/12/03 07:06:55;;;;;;;96.03;41.57;;;0.40;99.90;;;;;;4999524;28;38328;-78
2023/12/03 07:09:22;;;;;;;93.73;41.90;;;0.40;99.90;;;;;;4986234;28;40464;-78
2023/12/03 07:11:48;;;;;;;87.60;39.63;;;0.40;99.90;;;;;;4981150;28;38748;-77
2023/12/03 07:14:14;;;;;;;85.47;38.33;;;0.40;99.90;;;;;;4978591;28;37614;-78
2023/12/03 07:16:40;;;;;;;96.23;39.17;;;0.40;99.90;;;;;;4980030;28;36788;-78
2023/12/03 07:19:06;;;;;;;87.87;39.80;;;0.30;99.90;;;;;;4984064;28;39746;-78
2023/12/03 07:21:33;;;;;;;89.57;39.17;;;0.40;99.90;;;;;;4985845;28;39409;-78
2023/12/03 07:23:59;;;;;;;88.87;38.23;;;0.40;99.90;;;;;;4962841;28;38332;-78
2023/12/03 07:26:25;;;;;;;84.77;39.07;;;0.40;99.90;;;;;;4962064;28;36789;-78
2023/12/03 07:28:54;;;;;;;96.50;41.23;;;0.40;99.90;;;;;;4960115;28;39425;-79
2023/12/03 07:31:23;;;;;;;78.53;36.57;;;0.40;99.90;;;;;;4976813;28;38770;-78
2023/12/03 07:33:49;;;;;;;88.53;39.70;;;0.50;99.90;;;;;;4977573;28;38119;-79
2023/12/03 07:36:16;;;;;;;84.70;37.23;;;0.50;99.90;;;;;;4960066;28;37016;-78
2023/12/03 07:38:42;;;;;;;90.50;38.93;;;0.50;99.90;;;;;;4977723;28;38449;-79
2023/12/03 07:41:11;;;;;;;83.67;38.63;;;0.50;99.90;;;;;;4951553;28;37758;-78
2023/12/03 07:43:37;;;;;;;93.33;39.23;;;0.50;99.90;;;;;;4939380;28;37492;-80
2023/12/03 07:46:04;;;;;;;78.53;37.03;;;0.50;99.90;;;;;;4976248;28;37320;-79
2023/12/03 07:48:33;;;;;;;84.10;37.23;;;0.50;99.90;;;;;;4984465;28;38705;-80
2023/12/03 07:50:59;;;;;;;85.73;37.33;;;0.50;99.90;;;;;;4962769;28;37184;-79
2023/12/03 07:53:25;;;;;;;87.63;37.47;;;0.50;99.90;;;;;;4956215;28;37300;-79
2023/12/03 07:55:52;;;;;;;86.80;37.23;;;0.50;99.90;;;;;;4983872;28;36406;-79
2023/12/03 07:58:18;;;;;;;89.37;38.17;;;0.50;99.90;;;;;;4967742;28;39304;-80
2023/12/03 08:00:44;;;;;;;85.80;36.90;;;0.50;99.90;;;;;;4978748;28;38861;-79
2023/12/03 08:03:10;;;;;;;86.33;37.70;;;0.50;99.90;;;;;;4962027;28;38172;-79
2023/12/03 08:05:36;;;;;;;83.53;37.33;;;0.50;99.90;;;;;;4967123;28;36667;-79
2023/12/03 08:08:04;;;;;;;87.47;38.33;;;0.50;99.90;;;;;;4969764;28;39226;-80
2023/12/03 08:10:30;;;;;;;84.50;37.87;;;0.50;99.90;;;;;;4986286;28;39701;-80
2023/12/03 08:12:56;;;;;;;82.77;37.10;;;0.50;99.90;;;;;;4970845;28;37220;-79
2023/12/03 08:15:22;;;;;;;87.53;38.60;;;0.50;99.90;;;;;;4968802;28;37492;-79
2023/12/03 08:17:48;;;;;;;90.07;38.67;;;0.60;99.90;;;;;;4965738;28;38125;-79
2023/12/03 08:20:14;;;;;;;78.37;36.93;;;0.50;99.90;;;;;;4963854;28;38239;-79
2023/12/03 08:22:44;;;;;;;79.50;36.63;;;0.60;99.90;;;;;;4985745;28;38391;-80
2023/12/03 08:25:10;;;;;;;88.57;37.00;;;0.60;99.90;;;;;;4964287;28;37679;-79
2023/12/03 08:27:39;;;;;;;73.03;34.80;;;0.60;99.90;;;;;;4961386;28;39776;-80
2023/12/03 08:30:06;;;;;;;75.70;34.60;;;0.60;99.90;;;;;;4967474;28;37728;-79
2023/12/03 08:32:32;;;;;;;77.27;33.83;;;0.70;99.90;;;;;;4959817;28;38920;-79
2023/12/03 08:34:59;;;;;;;83.70;35.77;;;0.70;99.90;;;;;;4965398;28;37879;-78
2023/12/03 08:37:25;;;;;;;78.43;36.77;;;0.70;99.90;;;;;;4959227;28;38678;-79
2023/12/03 08:39:51;;;;;;;69.47;32.33;;;0.70;99.90;;;;;;4971996;28;37865;-79
2023/12/03 08:42:19;;;;;;;73.27;34.07;;;0.80;99.90;;;;;;4984792;28;39371;-79
2023/12/03 08:44:46;;;;;;;77.30;34.30;;;0.70;99.90;;;;;;4971759;28;36628;-79
2023/12/03 08:47:17;;;;;;;74.77;33.40;;;0.80;99.90;;;;;;4973063;28;39645;-79
2023/12/03 08:49:44;;;;;;;73.77;31.47;;;0.80;99.90;;;;;;4972648;28;38843;-77
2023/12/03 08:52:11;;;;;;;74.67;34.27;;;0.80;99.90;;;;;;4961694;28;39663;-78
2023/12/03 08:54:37;;;;;;;69.03;31.90;;;0.80;99.90;;;;;;4971018;28;37647;-78
2023/12/03 08:57:07;;;;;;;67.33;30.03;;;0.80;99.90;;;;;;4962191;28;37683;-79
2023/12/03 08:59:33;;;;;;;72.03;32.43;;;0.80;99.90;;;;;;4961062;28;39616;-79
2023/12/03 09:01:59;;;;;;;70.03;31.80;;;0.90;99.90;;;;;;4984094;28;38094;-80
2023/12/03 09:04:28;;;;;;;69.17;31.03;;;0.90;99.90;;;;;;4952773;28;38625;-80
2023/12/03 09:06:55;;;;;;;66.47;28.87;;;0.90;99.90;;;;;;4964667;28;41101;-80
2023/12/03 09:09:21;;;;;;;69.87;30.37;;;0.90;99.90;;;;;;4979169;28;38517;-80
2023/12/03 09:11:47;;;;;;;67.30;30.87;;;0.90;99.90;;;;;;4964667;28;37526;-80
2023/12/03 09:14:14;;;;;;;60.93;28.33;;;0.90;99.90;;;;;;4986056;28;38137;-80
2023/12/03 09:16:40;;;;;;;63.87;29.13;;;0.90;99.90;;;;;;4964824;28;38723;-80
2023/12/03 09:19:09;;;;;;;62.73;28.47;;;0.90;99.90;;;;;;4961303;28;37427;-79
2023/12/03 09:21:36;;;;;;;61.27;28.63;;;1.00;99.90;;;;;;4968475;28;38281;-80
2023/12/03 09:24:04;;;;;;;61.83;28.10;;;1.00;99.90;;;;;;4962968;28;39442;-78
2023/12/03 09:26:30;;;;;;;57.07;26.83;;;1.00;99.90;;;;;;4954561;28;40176;-79
2023/12/03 09:28:56;;;;;;;60.10;29.40;;;1.00;99.90;;;;;;4958205;28;38225;-80
2023/12/03 09:31:22;;;;;;;60.27;27.37;;;1.00;99.90;;;;;;4980822;28;38982;-80
2023/12/03 09:33:48;;;;;;;56.80;27.00;;;1.00;99.90;;;;;;4944894;28;36559;-78
2023/12/03 09:36:18;;;;;;;57.07;28.00;;;1.10;99.90;;;;;;4967384;28;38120;-79
2023/12/03 09:38:44;;;;;;;56.00;27.40;;;1.10;99.90;;;;;;4955022;28;39554;-79
2023/12/03 09:41:15;;;;;;;57.10;25.77;;;1.10;99.90;;;;;;4976451;28;38134;-79
2023/12/03 09:43:46;;;;;;;58.80;26.87;;;1.10;99.90;;;;;;4969475;28;38803;-79
2023/12/03 09:46:13;;;;;;;62.93;27.00;;;1.10;99.90;;;;;;4974809;28;39694;-79
2023/12/03 09:48:43;;;;;;;47.87;24.13;;;1.10;99.90;;;;;;4965606;28;37607;-80
2023/12/03 09:51:22;;;;;;;56.07;25.47;;;1.10;99.90;;;;;;4968931;28;37492;-80
2023/12/03 09:53:53;;;;;;;51.73;25.20;;;1.10;99.90;;;;;;4962333;28;38059;-80
2023/12/03 09:56:19;;;;;;;56.63;25.30;;;1.20;99.90;;;;;;4967706;28;39489;-79
2023/12/03 09:58:53;;;;;;;49.23;24.23;;;1.10;99.90;;;;;;4953106;28;36828;-79
2023/12/03 10:01:27;;;;;;;47.00;23.80;;;1.10;99.90;;;;;;4965611;28;38746;-79
2023/12/03 10:03:53;;;;;;;47.90;24.27;;;1.20;99.90;;;;;;4969072;28;36659;-82
2023/12/03 10:06:22;;;;;;;53.30;23.43;;;1.20;99.90;;;;;;4985073;28;40256;-79
2023/12/03 10:08:52;;;;;;;48.67;24.20;;;1.20;99.90;;;;;;4986098;28;38449;-79
2023/12/03 10:11:25;;;;;;;45.43;23.77;;;1.20;99.90;;;;;;4956075;28;38304;-79
2023/12/03 10:13:53;;;;;;;46.77;22.57;;;1.30;99.90;;;;;;4979858;28;37320;-79
2023/12/03 10:16:22;;;;;;;49.10;23.43;;;1.20;99.90;;;;;;4965021;28;38031;-78
2023/12/03 10:18:50;;;;;;;47.27;21.97;;;1.30;99.90;;;;;;4983670;28;37658;-79
2023/12/03 10:21:19;;;;;;;47.03;21.77;;;1.30;99.90;;;;;;4966682;28;37076;-79
2023/12/03 10:24:00;;;;;;;45.50;22.27;;;1.30;99.90;;;;;;4964949;28;36303;-79
2023/12/03 10:26:27;;;;;;;48.37;22.27;;;1.30;99.90;;;;;;4938135;28;46981;-79
2023/12/03 10:28:53;;;;;;;43.67;21.33;;;1.40;99.90;;;;;;4982688;28;38674;-79
2023/12/03 10:31:23;;;;;;;40.97;21.33;;;1.40;99.90;;;;;;4980019;28;39399;-80
2023/12/03 10:33:50;;;;;;;42.83;20.73;;;1.50;99.90;;;;;;4966587;28;36195;-79
2023/12/03 10:36:16;;;;;;;42.87;20.90;;;1.50;99.90;;;;;;4963183;28;39406;-79
2023/12/03 10:38:43;;;;;;;47.07;20.67;;;1.50;99.90;;;;;;4971938;28;39002;-79
2023/12/03 10:41:13;;;;;;;45.17;21.57;;;1.50;99.90;;;;;;4959879;28;37582;-79
2023/12/03 10:43:42;;;;;;;41.47;20.27;;;1.50;99.90;;;;;;4962592;28;37394;-79
2023/12/03 10:46:10;;;;;;;38.50;19.20;;;1.60;99.90;;;;;;4982426;28;39606;-79
2023/12/03 10:48:37;;;;;;;37.47;18.77;;;1.60;99.90;;;;;;4969793;28;37684;-78
2023/12/03 10:51:13;;;;;;;36.17;18.53;;;1.70;99.90;;;;;;4968717;28;37508;-79
2023/12/03 10:53:39;;;;;;;39.63;18.27;;;1.70;99.90;;;;;;4988914;28;49615;-79
2023/12/03 10:56:07;;;;;;;34.00;18.00;;;1.80;99.90;;;;;;4967455;28;37728;-78
2023/12/03 10:58:40;;;;;;;37.03;18.80;;;1.80;99.90;;;;;;4966419;28;37540;-79
2023/12/03 11:01:22;;;;;;;35.75;18.15;;;1.90;99.90;;;;;;4971071;28;38143;-80
2023/12/03 11:04:03;;;;;;;38.58;19.75;;;1.90;99.90;;;;;;4965469;28;37472;-79
2023/12/03 11:06:33;;;;;;;36.70;18.53;;;2.00;99.90;;;;;;4988464;28;48456;-80
2023/12/03 11:08:59;;;;;;;37.07;18.17;;;2.00;99.90;;;;;;4987793;28;39766;-79
2023/12/03 11:11:26;;;;;;;34.20;16.60;;;2.00;99.90;;;;;;4968055;28;37186;-79
2023/12/03 11:13:56;;;;;;;31.93;17.53;;;2.10;99.90;;;;;;4961835;28;36402;-79
2023/12/03 11:16:27;;;;;;;33.63;18.20;;;2.20;99.90;;;;;;4962809;28;38552;-79
2023/12/03 11:19:09;;;;;;;29.77;16.67;;;2.20;99.90;;;;;;4974452;28;41927;-80
2023/12/03 11:21:58;;;;;;;30.33;15.97;;;2.30;99.90;;;;;;4945221;28;47872;-79
2023/12/03 11:24:39;;;;;;;28.73;16.40;;;2.30;99.90;;;;;;4982621;28;37200;-79
2023/12/03 11:27:08;;;;;;;29.70;16.07;;;2.30;99.90;;;;;;4978215;28;38792;-78
2023/12/03 11:29:55;;;;;;;29.03;15.77;;;2.40;99.90;;;;;;4983747;28;38682;-79
2023/12/03 11:32:24;;;;;;;28.07;15.70;;;2.40;99.90;;;;;;4983566;28;38362;-79
2023/12/03 11:35:00;;;;;;;28.77;14.97;;;2.40;99.90;;;;;;4983638;28;37476;-79
2023/12/03 11:37:28;;;;;;;29.27;16.40;;;2.40;99.90;;;;;;4983611;28;38674;-78
2023/12/03 11:39:58;;;;;;;30.93;16.37;;;2.50;99.90;;;;;;4963500;28;37964;-79
2023/12/03 11:42:25;;;;;;;28.10;15.57;;;2.40;99.90;;;;;;4979853;28;39195;-78
2023/12/03 11:45:21;;;;;;;30.07;15.80;;;2.50;99.90;;;;;;4971005;28;36411;-79
2023/12/03 11:48:06;;;;;;;31.17;16.37;;;2.50;99.90;;;;;;4982576;28;48789;-79
2023/12/03 11:50:43;;;;;;;26.27;15.53;;;2.50;99.90;;;;;;4960744;28;47828;-79
2023/12/03 11:53:13;;;;;;;34.53;18.97;;;2.50;99.90;;;;;;4982241;28;40474;-78
2023/12/03 11:55:41;;;;;;;29.47;16.27;;;2.50;99.90;;;;;;4966856;28;36235;-79
2023/12/03 11:58:08;;;;;;;28.10;14.37;;;2.60;99.90;;;;;;4963765;28;37772;-80
2023/12/03 12:00:36;;;;;;;28.00;13.97;;;2.60;99.90;;;;;;4960486;28;38100;-79
2023/12/03 12:03:05;;;;;;;26.50;14.77;;;2.60;99.90;;;;;;4955007;28;35944;-79
2023/12/03 12:05:32;;;;;;;26.70;13.90;;;2.60;99.90;;;;;;4965745;28;36185;-79
2023/12/03 12:08:00;;;;;;;25.53;14.07;;;2.70;99.90;;;;;;4982168;28;40100;-79
2023/12/03 12:10:29;;;;;;;22.73;11.80;;;2.60;99.90;;;;;;4976376;28;38457;-79
2023/12/03 12:12:57;;;;;;;28.07;14.40;;;2.60;99.90;;;;;;4978694;28;38297;-79
2023/12/03 12:15:27;;;;;;;23.63;13.23;;;2.60;99.90;;;;;;4941046;28;36034;-78
2023/12/03 12:17:56;;;;;;;23.63;12.47;;;2.60;99.90;;;;;;4972633;28;37824;-78
2023/12/03 12:20:26;;;;;;;27.07;13.33;;;2.60;99.90;;;;;;4970305;28;38757;-80
2023/12/03 12:22:53;;;;;;;26.30;13.23;;;2.60;99.90;;;;;;4973517;28;39063;-79
2023/12/03 12:25:26;;;;;;;29.13;14.27;;;2.60;99.90;;;;;;4964090;28;37404;-78
2023/12/03 12:27:54;;;;;;;27.10;14.67;;;2.50;99.90;;;;;;4968133;28;39374;-78
2023/12/03 12:30:28;;;;;;;26.10;14.23;;;2.50;99.90;;;;;;4969142;28;37425;-78
2023/12/03 12:32:59;;;;;;;27.80;14.87;;;2.50;99.90;;;;;;4970892;28;37111;-78
2023/12/03 12:35:28;;;;;;;28.27;14.73;;;2.40;99.90;;;;;;4971057;28;37774;-78
2023/12/03 12:38:05;;;;;;;30.00;14.77;;;2.40;99.90;;;;;;4973537;28;37987;-78
2023/12/03 12:40:38;;;;;;;25.63;13.73;;;2.40;99.90;;;;;;4987583;28;48068;-78
2023/12/03 12:43:10;;;;;;;20.90;11.80;;;2.40;99.90;;;;;;4974251;28;38316;-78